sensor_id;sensor_type;location;lat;lon;timestamp;temperature;humidity
44775;DHT22;31340;51.402;0.016;2023-07-09T00:02:02;21.70;99.80
44775;DHT22;31340;51.402;0.016;2023-07-09T00:04:29;21.60;99.90
44775;DHT22;31340;51.402;0.016;2023-07-09T00:07:01;21.60;99.90
44775;DHT22;31340;51.402;0.016;2023-07-09T00:09:29;21.60;99.90
44775;DHT22;31340;51.402;0.016;2023-07-09T00:11:58;21.60;99.90
44775;DHT22;31340;51.402;0.016;2023-07-09T00:14:25;21.60;99.90
44775;DHT22;31340;51.402;0.016;2023-07-09T00:16:53;21.50;99.90
44775;DHT22;31340;51.402;0.016;2023-07-09T00:19:22;21.50;99.90
44775;DHT22;31340;51.402;0.016;2023-07-09T00:21:52;21.50;99.90
44775;DHT22;31340;51.402;0.016;2023-07-09T00:24:23;21.40;99.90
44775;DHT22;31340;51.402;0.016;2023-07-09T00:26:51;21.40;99.90
44775;DHT22;31340;51.402;0.016;2023-07-09T00:29:19;21.30;99.90
44775;DHT22;31340;51.402;0.016;2023-07-09T00:31:47;21.30;99.90
44775;DHT22;31340;51.402;0.016;2023-07-09T00:34:15;21.30;99.90
44775;DHT22;31340;51.402;0.016;2023-07-09T00:36:49;21.20;99.90
44775;DHT22;31340;51.402;0.016;2023-07-09T00:39:20;21.20;99.90
44775;DHT22;31340;51.402;0.016;2023-07-09T00:41:49;21.20;99.90
44775;DHT22;31340;51.402;0.016;2023-07-09T00:49:31;21.10;99.90
44775;DHT22;31340;51.402;0.016;2023-07-09T00:52:09;21.00;99.90
44775;DHT22;31340;51.402;0.016;2023-07-09T00:54:42;21.00;99.90
44775;DHT22;31340;51.402;0.016;2023-07-09T00:57:16;21.00;99.90
44775;DHT22;31340;51.402;0.016;2023-07-09T00:59:53;20.90;99.90
44775;DHT22;31340;51.402;0.016;2023-07-09T01:02:22;20.90;99.90
44775;DHT22;31340;51.402;0.016;2023-07-09T01:04:56;20.90;99.90
44775;DHT22;31340;51.402;0.016;2023-07-09T01:07:30;20.90;99.90
44775;DHT22;31340;51.402;0.016;2023-07-09T01:09:58;20.80;99.90
44775;DHT22;31340;51.402;0.016;2023-07-09T01:12:28;20.70;99.90
44775;DHT22;31340;51.402;0.016;2023-07-09T01:14:59;20.70;99.90
44775;DHT22;31340;51.402;0.016;2023-07-09T01:17:27;20.70;99.90
44775;DHT22;31340;51.402;0.016;2023-07-09T01:19:56;20.70;99.90
44775;DHT22;31340;51.402;0.016;2023-07-09T01:22:26;20.70;99.90
44775;DHT22;31340;51.402;0.016;2023-07-09T01:25:04;20.60;99.90
44775;DHT22;31340;51.402;0.016;2023-07-09T01:27:40;20.60;99.90
44775;DHT22;31340;51.402;0.016;2023-07-09T01:30:32;20.60;99.90
44775;DHT22;31340;51.402;0.016;2023-07-09T01:33:01;20.60;99.90
44775;DHT22;31340;51.402;0.016;2023-07-09T01:35:32;20.50;99.90
44775;DHT22;31340;51.402;0.016;2023-07-09T01:38:01;20.50;99.90
44775;DHT22;31340;51.402;0.016;2023-07-09T01:40:29;20.50;99.90
44775;DHT22;31340;51.402;0.016;2023-07-09T01:43:02;20.50;99.90
44775;DHT22;31340;51.402;0.016;2023-07-09T01:45:35;20.50;99.90
44775;DHT22;31340;51.402;0.016;2023-07-09T01:48:03;20.50;99.90
44775;DHT22;31340;51.402;0.016;2023-07-09T01:50:31;20.50;99.90
44775;DHT22;31340;51.402;0.016;2023-07-09T01:53:00;20.50;99.90
44775;DHT22;31340;51.402;0.016;2023-07-09T01:55:28;20.50;99.90
44775;DHT22;31340;51.402;0.016;2023-07-09T01:57:58;20.50;99.90
44775;DHT22;31340;51.402;0.016;2023-07-09T02:00:26;20.50;99.90
44775;DHT22;31340;51.402;0.016;2023-07-09T02:02:54;20.50;99.90
44775;DHT22;31340;51.402;0.016;2023-07-09T02:05:23;20.50;99.90
44775;DHT22;31340;51.402;0.016;2023-07-09T02:07:52;20.50;99.90
44775;DHT22;31340;51.402;0.016;2023-07-09T02:10:22;20.40;99.90
44775;DHT22;31340;51.402;0.016;2023-07-09T02:12:50;20.40;99.90
44775;DHT22;31340;51.402;0.016;2023-07-09T02:15:17;20.40;99.90
44775;DHT22;31340;51.402;0.016;2023-07-09T02:17:45;20.40;99.90
44775;DHT22;31340;51.402;0.016;2023-07-09T02:20:14;20.40;99.90
44775;DHT22;31340;51.402;0.016;2023-07-09T02:22:42;20.40;99.90
44775;DHT22;31340;51.402;0.016;2023-07-09T02:25:11;20.40;99.90
44775;DHT22;31340;51.402;0.016;2023-07-09T02:27:39;20.40;99.90
44775;DHT22;31340;51.402;0.016;2023-07-09T02:30:07;20.30;99.90
44775;DHT22;31340;51.402;0.016;2023-07-09T02:32:35;20.30;99.90
44775;DHT22;31340;51.402;0.016;2023-07-09T02:35:04;20.30;99.90
44775;DHT22;31340;51.402;0.016;2023-07-09T02:37:32;20.30;99.90
44775;DHT22;31340;51.402;0.016;2023-07-09T02:40:01;20.30;99.90
44775;DHT22;31340;51.402;0.016;2023-07-09T02:42:29;20.20;99.90
44775;DHT22;31340;51.402;0.016;2023-07-09T02:44:56;20.20;99.90
44775;DHT22;31340;51.402;0.016;2023-07-09T02:47:26;20.20;99.90
44775;DHT22;31340;51.402;0.016;2023-07-09T02:49:57;20.20;99.90
44775;DHT22;31340;51.402;0.016;2023-07-09T02:52:25;20.10;99.90
44775;DHT22;31340;51.402;0.016;2023-07-09T02:54:54;20.10;99.90
44775;DHT22;31340;51.402;0.016;2023-07-09T02:57:22;20.00;99.90
44775;DHT22;31340;51.402;0.016;2023-07-09T02:59:50;20.00;99.90
44775;DHT22;31340;51.402;0.016;2023-07-09T03:02:19;20.00;99.90
44775;DHT22;31340;51.402;0.016;2023-07-09T03:04:47;20.00;99.90
44775;DHT22;31340;51.402;0.016;2023-07-09T03:07:16;20.00;99.90
44775;DHT22;31340;51.402;0.016;2023-07-09T03:09:43;20.00;99.90
44775;DHT22;31340;51.402;0.016;2023-07-09T03:12:11;19.90;99.90
44775;DHT22;31340;51.402;0.016;2023-07-09T03:14:39;19.90;99.90
44775;DHT22;31340;51.402;0.016;2023-07-09T03:17:07;19.90;99.90
44775;DHT22;31340;51.402;0.016;2023-07-09T03:19:34;19.90;99.90
44775;DHT22;31340;51.402;0.016;2023-07-09T03:22:04;19.80;99.90
44775;DHT22;31340;51.402;0.016;2023-07-09T03:24:32;19.80;99.90
44775;DHT22;31340;51.402;0.016;2023-07-09T03:27:00;19.80;99.90
44775;DHT22;31340;51.402;0.016;2023-07-09T03:29:28;19.80;99.90
44775;DHT22;31340;51.402;0.016;2023-07-09T03:31:56;19.70;99.90
44775;DHT22;31340;51.402;0.016;2023-07-09T03:34:24;19.70;99.90
44775;DHT22;31340;51.402;0.016;2023-07-09T03:36:52;19.70;99.90
44775;DHT22;31340;51.402;0.016;2023-07-09T03:39:19;19.70;99.90
44775;DHT22;31340;51.402;0.016;2023-07-09T03:41:47;19.70;99.90
44775;DHT22;31340;51.402;0.016;2023-07-09T03:44:15;19.60;99.90
44775;DHT22;31340;51.402;0.016;2023-07-09T03:46:43;19.60;99.90
44775;DHT22;31340;51.402;0.016;2023-07-09T03:49:10;19.60;99.90
44775;DHT22;31340;51.402;0.016;2023-07-09T03:51:38;19.60;99.90
44775;DHT22;31340;51.402;0.016;2023-07-09T03:54:06;19.60;99.90
44775;DHT22;31340;51.402;0.016;2023-07-09T03:56:34;19.50;99.90
44775;DHT22;31340;51.402;0.016;2023-07-09T03:59:04;19.50;99.90
44775;DHT22;31340;51.402;0.016;2023-07-09T04:01:32;19.50;99.90
44775;DHT22;31340;51.402;0.016;2023-07-09T04:03:59;19.50;99.90
44775;DHT22;31340;51.402;0.016;2023-07-09T04:06:27;19.50;99.90
44775;DHT22;31340;51.402;0.016;2023-07-09T04:08:55;19.50;99.90
44775;DHT22;31340;51.402;0.016;2023-07-09T04:11:23;19.40;99.90
44775;DHT22;31340;51.402;0.016;2023-07-09T04:13:51;19.40;99.90
44775;DHT22;31340;51.402;0.016;2023-07-09T04:16:19;19.40;99.90
44775;DHT22;31340;51.402;0.016;2023-07-09T04:18:47;19.40;99.90
44775;DHT22;31340;51.402;0.016;2023-07-09T04:21:15;19.40;99.90
44775;DHT22;31340;51.402;0.016;2023-07-09T04:23:43;19.40;99.90
44775;DHT22;31340;51.402;0.016;2023-07-09T04:26:14;19.40;99.90
44775;DHT22;31340;51.402;0.016;2023-07-09T04:28:42;19.40;99.90
44775;DHT22;31340;51.402;0.016;2023-07-09T04:31:10;19.40;99.90
44775;DHT22;31340;51.402;0.016;2023-07-09T04:33:38;19.40;99.90
44775;DHT22;31340;51.402;0.016;2023-07-09T04:36:06;19.40;99.90
44775;DHT22;31340;51.402;0.016;2023-07-09T04:38:34;19.40;99.90
44775;DHT22;31340;51.402;0.016;2023-07-09T04:41:01;19.40;99.90
44775;DHT22;31340;51.402;0.016;2023-07-09T04:43:29;19.40;99.90
44775;DHT22;31340;51.402;0.016;2023-07-09T04:45:59;19.40;99.90
44775;DHT22;31340;51.402;0.016;2023-07-09T04:48:27;19.40;99.90
44775;DHT22;31340;51.402;0.016;2023-07-09T04:50:55;19.40;99.90
44775;DHT22;31340;51.402;0.016;2023-07-09T04:53:22;19.40;99.90
44775;DHT22;31340;51.402;0.016;2023-07-09T04:55:51;19.40;99.90
44775;DHT22;31340;51.402;0.016;2023-07-09T04:58:19;19.40;99.90
44775;DHT22;31340;51.402;0.016;2023-07-09T05:00:46;19.40;99.90
44775;DHT22;31340;51.402;0.016;2023-07-09T05:03:14;19.40;99.90
44775;DHT22;31340;51.402;0.016;2023-07-09T05:05:44;19.40;99.90
44775;DHT22;31340;51.402;0.016;2023-07-09T05:08:13;19.40;99.90
44775;DHT22;31340;51.402;0.016;2023-07-09T05:10:48;19.40;99.90
44775;DHT22;31340;51.402;0.016;2023-07-09T05:13:17;19.40;99.90
44775;DHT22;31340;51.402;0.016;2023-07-09T05:15:46;19.40;99.90
44775;DHT22;31340;51.402;0.016;2023-07-09T05:18:15;19.40;99.90
44775;DHT22;31340;51.402;0.016;2023-07-09T05:20:43;19.40;99.90
44775;DHT22;31340;51.402;0.016;2023-07-09T05:23:12;19.40;99.90
44775;DHT22;31340;51.402;0.016;2023-07-09T05:25:39;19.50;99.90
44775;DHT22;31340;51.402;0.016;2023-07-09T05:28:08;19.50;99.90
44775;DHT22;31340;51.402;0.016;2023-07-09T05:30:36;19.50;99.90
44775;DHT22;31340;51.402;0.016;2023-07-09T05:33:04;19.50;99.90
44775;DHT22;31340;51.402;0.016;2023-07-09T05:35:32;19.50;99.90
44775;DHT22;31340;51.402;0.016;2023-07-09T05:38:01;19.50;99.90
44775;DHT22;31340;51.402;0.016;2023-07-09T05:40:28;19.50;99.90
44775;DHT22;31340;51.402;0.016;2023-07-09T05:42:56;19.50;99.90
44775;DHT22;31340;51.402;0.016;2023-07-09T05:45:24;19.60;99.90
44775;DHT22;31340;51.402;0.016;2023-07-09T05:47:52;19.60;99.90
44775;DHT22;31340;51.402;0.016;2023-07-09T05:50:20;19.50;99.90
44775;DHT22;31340;51.402;0.016;2023-07-09T05:52:48;19.60;99.90
44775;DHT22;31340;51.402;0.016;2023-07-09T05:55:16;19.60;99.90
44775;DHT22;31340;51.402;0.016;2023-07-09T05:57:43;19.60;99.90
44775;DHT22;31340;51.402;0.016;2023-07-09T06:00:12;19.70;99.90
44775;DHT22;31340;51.402;0.016;2023-07-09T06:02:40;19.70;99.90
44775;DHT22;31340;51.402;0.016;2023-07-09T06:05:08;19.70;99.90
44775;DHT22;31340;51.402;0.016;2023-07-09T06:07:38;19.70;99.90
44775;DHT22;31340;51.402;0.016;2023-07-09T06:10:07;19.70;99.90
44775;DHT22;31340;51.402;0.016;2023-07-09T06:12:36;19.80;99.90
44775;DHT22;31340;51.402;0.016;2023-07-09T06:15:04;19.80;99.90
44775;DHT22;31340;51.402;0.016;2023-07-09T06:17:32;19.80;99.90
44775;DHT22;31340;51.402;0.016;2023-07-09T06:19:59;19.80;99.90
44775;DHT22;31340;51.402;0.016;2023-07-09T06:22:27;19.80;99.90
44775;DHT22;31340;51.402;0.016;2023-07-09T06:24:55;19.90;99.90
44775;DHT22;31340;51.402;0.016;2023-07-09T06:27:23;19.90;99.90
44775;DHT22;31340;51.402;0.016;2023-07-09T06:29:51;19.90;99.90
44775;DHT22;31340;51.402;0.016;2023-07-09T06:32:19;20.00;99.90
44775;DHT22;31340;51.402;0.016;2023-07-09T06:34:46;20.00;99.90
44775;DHT22;31340;51.402;0.016;2023-07-09T06:37:14;20.00;99.90
44775;DHT22;31340;51.402;0.016;2023-07-09T06:39:41;20.00;99.90
44775;DHT22;31340;51.402;0.016;2023-07-09T06:42:09;20.00;99.90
44775;DHT22;31340;51.402;0.016;2023-07-09T06:45:04;20.00;99.90
44775;DHT22;31340;51.402;0.016;2023-07-09T06:47:32;20.00;99.90
44775;DHT22;31340;51.402;0.016;2023-07-09T06:50:00;20.00;99.90
44775;DHT22;31340;51.402;0.016;2023-07-09T06:52:27;20.10;99.90
44775;DHT22;31340;51.402;0.016;2023-07-09T06:54:58;20.10;99.90
44775;DHT22;31340;51.402;0.016;2023-07-09T06:57:26;20.20;99.90
44775;DHT22;31340;51.402;0.016;2023-07-09T06:59:54;20.20;99.90
44775;DHT22;31340;51.402;0.016;2023-07-09T07:02:22;20.30;99.80
44775;DHT22;31340;51.402;0.016;2023-07-09T07:04:49;20.30;99.40
44775;DHT22;31340;51.402;0.016;2023-07-09T07:07:17;20.30;99.20
44775;DHT22;31340;51.402;0.016;2023-07-09T07:09:44;20.40;99.00
44775;DHT22;31340;51.402;0.016;2023-07-09T07:12:29;20.40;98.90
44775;DHT22;31340;51.402;0.016;2023-07-09T07:14:56;20.50;98.40
44775;DHT22;31340;51.402;0.016;2023-07-09T07:17:24;20.50;98.30
44775;DHT22;31340;51.402;0.016;2023-07-09T07:19:51;20.50;98.10
44775;DHT22;31340;51.402;0.016;2023-07-09T07:22:19;20.50;97.90
44775;DHT22;31340;51.402;0.016;2023-07-09T07:24:46;20.50;97.60
44775;DHT22;31340;51.402;0.016;2023-07-09T07:27:14;20.60;97.50
44775;DHT22;31340;51.402;0.016;2023-07-09T07:29:42;20.60;97.50
44775;DHT22;31340;51.402;0.016;2023-07-09T07:32:09;20.60;97.40
44775;DHT22;31340;51.402;0.016;2023-07-09T07:34:37;20.60;97.40
44775;DHT22;31340;51.402;0.016;2023-07-09T07:37:04;20.70;97.20
44775;DHT22;31340;51.402;0.016;2023-07-09T07:39:32;20.70;97.00
44775;DHT22;31340;51.402;0.016;2023-07-09T07:41:59;20.80;97.00
44775;DHT22;31340;51.402;0.016;2023-07-09T07:44:27;20.80;96.80
44775;DHT22;31340;51.402;0.016;2023-07-09T07:46:54;20.90;96.50
44775;DHT22;31340;51.402;0.016;2023-07-09T07:49:22;21.00;95.90
44775;DHT22;31340;51.402;0.016;2023-07-09T07:51:49;21.10;95.20
44775;DHT22;31340;51.402;0.016;2023-07-09T07:54:17;21.10;94.70
44775;DHT22;31340;51.402;0.016;2023-07-09T07:56:46;21.10;93.80
44775;DHT22;31340;51.402;0.016;2023-07-09T07:59:13;21.20;93.70
44775;DHT22;31340;51.402;0.016;2023-07-09T08:01:41;21.20;93.00
44775;DHT22;31340;51.402;0.016;2023-07-09T08:04:09;21.30;92.60
44775;DHT22;31340;51.402;0.016;2023-07-09T08:06:36;21.30;92.10
44775;DHT22;31340;51.402;0.016;2023-07-09T08:09:04;21.40;91.90
44775;DHT22;31340;51.402;0.016;2023-07-09T08:11:31;21.50;91.30
44775;DHT22;31340;51.402;0.016;2023-07-09T08:13:59;21.50;90.70
44775;DHT22;31340;51.402;0.016;2023-07-09T08:16:28;21.60;90.30
44775;DHT22;31340;51.402;0.016;2023-07-09T08:18:56;21.70;90.20
44775;DHT22;31340;51.402;0.016;2023-07-09T08:21:24;21.80;89.40
44775;DHT22;31340;51.402;0.016;2023-07-09T08:23:51;21.80;88.20
44775;DHT22;31340;51.402;0.016;2023-07-09T08:26:19;21.90;87.60
44775;DHT22;31340;51.402;0.016;2023-07-09T08:28:46;21.90;87.10
44775;DHT22;31340;51.402;0.016;2023-07-09T08:31:15;22.00;87.30
44775;DHT22;31340;51.402;0.016;2023-07-09T08:33:42;22.10;87.00
44775;DHT22;31340;51.402;0.016;2023-07-09T08:36:10;22.00;86.30
44775;DHT22;31340;51.402;0.016;2023-07-09T08:38:38;22.10;86.30
44775;DHT22;31340;51.402;0.016;2023-07-09T08:49:23;22.10;86.10
44775;DHT22;31340;51.402;0.016;2023-07-09T08:51:58;22.20;86.10
44775;DHT22;31340;51.402;0.016;2023-07-09T08:54:28;22.20;86.20
44775;DHT22;31340;51.402;0.016;2023-07-09T08:57:02;22.20;86.10
44775;DHT22;31340;51.402;0.016;2023-07-09T08:59:38;22.20;86.60
44775;DHT22;31340;51.402;0.016;2023-07-09T09:02:36;22.20;87.50
44775;DHT22;31340;51.402;0.016;2023-07-09T09:05:03;22.20;87.80
44775;DHT22;31340;51.402;0.016;2023-07-09T09:07:42;22.20;87.70
44775;DHT22;31340;51.402;0.016;2023-07-09T09:13:15;22.10;85.10
44775;DHT22;31340;51.402;0.016;2023-07-09T09:15:45;22.10;84.40
44775;DHT22;31340;51.402;0.016;2023-07-09T09:18:25;22.00;83.30
44775;DHT22;31340;51.402;0.016;2023-07-09T09:21:06;22.00;83.30
44775;DHT22;31340;51.402;0.016;2023-07-09T09:23:44;21.90;83.80
44775;DHT22;31340;51.402;0.016;2023-07-09T09:26:23;21.80;84.20
44775;DHT22;31340;51.402;0.016;2023-07-09T09:28:52;21.80;84.60
44775;DHT22;31340;51.402;0.016;2023-07-09T09:31:20;21.80;84.90
44775;DHT22;31340;51.402;0.016;2023-07-09T09:33:48;21.80;85.40
44775;DHT22;31340;51.402;0.016;2023-07-09T09:36:26;21.80;85.80
44775;DHT22;31340;51.402;0.016;2023-07-09T09:38:54;21.90;86.20
44775;DHT22;31340;51.402;0.016;2023-07-09T09:41:25;21.90;86.20
44775;DHT22;31340;51.402;0.016;2023-07-09T09:43:54;22.00;86.40
44775;DHT22;31340;51.402;0.016;2023-07-09T09:46:24;22.00;86.30
44775;DHT22;31340;51.402;0.016;2023-07-09T09:48:58;22.10;86.70
44775;DHT22;31340;51.402;0.016;2023-07-09T09:51:27;22.10;87.00
44775;DHT22;31340;51.402;0.016;2023-07-09T09:54:00;22.20;86.90
44775;DHT22;31340;51.402;0.016;2023-07-09T09:56:35;22.30;87.10
44775;DHT22;31340;51.402;0.016;2023-07-09T09:59:04;22.40;87.70
44775;DHT22;31340;51.402;0.016;2023-07-09T10:01:35;22.50;87.90
44775;DHT22;31340;51.402;0.016;2023-07-09T10:04:04;22.60;87.40
44775;DHT22;31340;51.402;0.016;2023-07-09T10:06:36;22.70;86.40
44775;DHT22;31340;51.402;0.016;2023-07-09T10:09:26;22.70;86.30
44775;DHT22;31340;51.402;0.016;2023-07-09T10:18:12;23.10;85.70
44775;DHT22;31340;51.402;0.016;2023-07-09T10:20:30;23.20;85.30
44775;DHT22;31340;51.402;0.016;2023-07-09T10:25:51;23.50;83.50
44775;DHT22;31340;51.402;0.016;2023-07-09T10:31:22;23.80;82.00
44775;DHT22;31340;51.402;0.016;2023-07-09T10:34:07;23.90;82.00
44775;DHT22;31340;51.402;0.016;2023-07-09T10:36:47;24.00;79.70
44775;DHT22;31340;51.402;0.016;2023-07-09T10:39:28;24.10;79.10
44775;DHT22;31340;51.402;0.016;2023-07-09T10:42:00;24.30;78.70
44775;DHT22;31340;51.402;0.016;2023-07-09T10:44:51;24.30;78.60
44775;DHT22;31340;51.402;0.016;2023-07-09T10:47:36;24.50;75.50
44775;DHT22;31340;51.402;0.016;2023-07-09T10:50:09;24.60;74.40
44775;DHT22;31340;51.402;0.016;2023-07-09T10:52:41;24.70;73.30
44775;DHT22;31340;51.402;0.016;2023-07-09T10:55:21;24.80;73.10
44775;DHT22;31340;51.402;0.016;2023-07-09T10:58:00;25.00;71.70
44775;DHT22;31340;51.402;0.016;2023-07-09T11:00:36;25.10;70.10
44775;DHT22;31340;51.402;0.016;2023-07-09T11:03:18;25.10;68.50
44775;DHT22;31340;51.402;0.016;2023-07-09T11:05:48;25.20;68.80
44775;DHT22;31340;51.402;0.016;2023-07-09T11:08:21;25.20;68.80
44775;DHT22;31340;51.402;0.016;2023-07-09T11:10:56;25.30;68.20
44775;DHT22;31340;51.402;0.016;2023-07-09T11:13:32;25.30;68.70
44775;DHT22;31340;51.402;0.016;2023-07-09T11:16:14;25.30;66.70
44775;DHT22;31340;51.402;0.016;2023-07-09T11:18:55;25.30;67.00
44775;DHT22;31340;51.402;0.016;2023-07-09T11:21:24;25.40;65.60
44775;DHT22;31340;51.402;0.016;2023-07-09T11:23:57;25.30;65.60
44775;DHT22;31340;51.402;0.016;2023-07-09T11:26:29;25.30;65.70
44775;DHT22;31340;51.402;0.016;2023-07-09T11:31:43;25.30;66.30
44775;DHT22;31340;51.402;0.016;2023-07-09T11:37:09;25.30;66.30
44775;DHT22;31340;51.402;0.016;2023-07-09T11:42:28;25.30;67.50
44775;DHT22;31340;51.402;0.016;2023-07-09T11:45:17;25.30;67.60
44775;DHT22;31340;51.402;0.016;2023-07-09T11:47:51;25.30;68.00
44775;DHT22;31340;51.402;0.016;2023-07-09T11:50:26;25.30;68.70
44775;DHT22;31340;51.402;0.016;2023-07-09T11:53:24;25.30;69.60
44775;DHT22;31340;51.402;0.016;2023-07-09T11:55:53;25.30;69.40
44775;DHT22;31340;51.402;0.016;2023-07-09T11:58:21;25.40;70.30
44775;DHT22;31340;51.402;0.016;2023-07-09T12:00:52;25.40;70.00
44775;DHT22;31340;51.402;0.016;2023-07-09T12:03:27;25.50;69.60
44775;DHT22;31340;51.402;0.016;2023-07-09T12:06:01;25.60;70.30
44775;DHT22;31340;51.402;0.016;2023-07-09T12:08:36;25.60;70.50
44775;DHT22;31340;51.402;0.016;2023-07-09T12:11:05;25.70;70.30
44775;DHT22;31340;51.402;0.016;2023-07-09T12:13:39;25.70;70.30
44775;DHT22;31340;51.402;0.016;2023-07-09T12:18:50;25.80;69.90
44775;DHT22;31340;51.402;0.016;2023-07-09T12:21:18;25.70;70.20
44775;DHT22;31340;51.402;0.016;2023-07-09T12:23:47;25.80;70.70
44775;DHT22;31340;51.402;0.016;2023-07-09T12:26:16;25.80;70.70
44775;DHT22;31340;51.402;0.016;2023-07-09T12:28:52;25.80;70.90
44775;DHT22;31340;51.402;0.016;2023-07-09T12:31:29;25.90;71.00
44775;DHT22;31340;51.402;0.016;2023-07-09T12:33:58;25.90;70.60
44775;DHT22;31340;51.402;0.016;2023-07-09T12:36:28;25.90;71.10
44775;DHT22;31340;51.402;0.016;2023-07-09T12:39:00;25.90;71.20
44775;DHT22;31340;51.402;0.016;2023-07-09T12:41:41;25.90;71.40
44775;DHT22;31340;51.402;0.016;2023-07-09T12:44:19;25.90;71.60
44775;DHT22;31340;51.402;0.016;2023-07-09T12:46:49;25.90;70.60
44775;DHT22;31340;51.402;0.016;2023-07-09T12:49:29;25.90;71.10
44775;DHT22;31340;51.402;0.016;2023-07-09T12:52:01;26.00;70.30
44775;DHT22;31340;51.402;0.016;2023-07-09T12:54:30;25.90;70.50
44775;DHT22;31340;51.402;0.016;2023-07-09T12:56:59;25.90;70.30
44775;DHT22;31340;51.402;0.016;2023-07-09T12:59:36;25.80;70.20
44775;DHT22;31340;51.402;0.016;2023-07-09T13:02:19;25.80;70.70
44775;DHT22;31340;51.402;0.016;2023-07-09T13:04:48;25.70;71.10
44775;DHT22;31340;51.402;0.016;2023-07-09T13:09:53;25.60;73.20
44775;DHT22;31340;51.402;0.016;2023-07-09T13:12:30;25.50;72.40
44775;DHT22;31340;51.402;0.016;2023-07-09T13:14:59;25.50;72.80
44775;DHT22;31340;51.402;0.016;2023-07-09T13:17:30;25.40;72.60
44775;DHT22;31340;51.402;0.016;2023-07-09T13:19:59;25.30;72.80
44775;DHT22;31340;51.402;0.016;2023-07-09T13:22:28;25.30;73.20
44775;DHT22;31340;51.402;0.016;2023-07-09T13:24:56;25.30;73.70
44775;DHT22;31340;51.402;0.016;2023-07-09T13:27:23;25.30;74.00
44775;DHT22;31340;51.402;0.016;2023-07-09T13:29:51;25.20;74.40
44775;DHT22;31340;51.402;0.016;2023-07-09T13:32:20;25.20;75.10
44775;DHT22;31340;51.402;0.016;2023-07-09T13:34:48;25.20;75.60
44775;DHT22;31340;51.402;0.016;2023-07-09T13:37:16;25.20;75.90
44775;DHT22;31340;51.402;0.016;2023-07-09T13:39:44;25.10;76.40
44775;DHT22;31340;51.402;0.016;2023-07-09T13:42:15;25.10;76.10
44775;DHT22;31340;51.402;0.016;2023-07-09T13:44:46;25.20;76.20
44775;DHT22;31340;51.402;0.016;2023-07-09T13:47:15;25.10;75.70
44775;DHT22;31340;51.402;0.016;2023-07-09T13:49:46;25.10;75.80
44775;DHT22;31340;51.402;0.016;2023-07-09T13:52:21;25.10;75.80
44775;DHT22;31340;51.402;0.016;2023-07-09T13:54:50;25.10;76.00
44775;DHT22;31340;51.402;0.016;2023-07-09T13:57:21;25.10;76.40
44775;DHT22;31340;51.402;0.016;2023-07-09T13:59:49;25.10;76.60
44775;DHT22;31340;51.402;0.016;2023-07-09T14:02:30;25.00;76.40
44775;DHT22;31340;51.402;0.016;2023-07-09T14:05:03;25.00;76.50
44775;DHT22;31340;51.402;0.016;2023-07-09T14:07:33;25.00;76.60
44775;DHT22;31340;51.402;0.016;2023-07-09T14:10:05;24.90;76.80
44775;DHT22;31340;51.402;0.016;2023-07-09T14:12:41;24.90;76.80
44775;DHT22;31340;51.402;0.016;2023-07-09T14:15:20;24.90;76.80
44775;DHT22;31340;51.402;0.016;2023-07-09T14:17:48;24.90;76.10
44775;DHT22;31340;51.402;0.016;2023-07-09T14:20:17;24.90;76.20
44775;DHT22;31340;51.402;0.016;2023-07-09T14:22:45;24.80;75.90
44775;DHT22;31340;51.402;0.016;2023-07-09T14:25:22;24.80;75.80
44775;DHT22;31340;51.402;0.016;2023-07-09T14:27:53;24.80;75.90
44775;DHT22;31340;51.402;0.016;2023-07-09T14:30:25;24.80;76.20
44775;DHT22;31340;51.402;0.016;2023-07-09T14:32:56;24.90;76.10
44775;DHT22;31340;51.402;0.016;2023-07-09T14:35:26;24.80;75.90
44775;DHT22;31340;51.402;0.016;2023-07-09T14:37:54;24.80;75.70
44775;DHT22;31340;51.402;0.016;2023-07-09T14:40:23;24.80;75.10
44775;DHT22;31340;51.402;0.016;2023-07-09T14:42:51;24.80;75.20
44775;DHT22;31340;51.402;0.016;2023-07-09T14:45:24;24.80;74.60
44775;DHT22;31340;51.402;0.016;2023-07-09T14:47:52;24.80;74.10
44775;DHT22;31340;51.402;0.016;2023-07-09T14:50:23;24.70;73.80
44775;DHT22;31340;51.402;0.016;2023-07-09T14:52:51;24.60;73.30
44775;DHT22;31340;51.402;0.016;2023-07-09T14:55:20;24.60;72.80
44775;DHT22;31340;51.402;0.016;2023-07-09T14:57:48;24.60;72.40
44775;DHT22;31340;51.402;0.016;2023-07-09T15:00:19;24.50;72.30
44775;DHT22;31340;51.402;0.016;2023-07-09T15:02:50;24.50;72.20
44775;DHT22;31340;51.402;0.016;2023-07-09T15:05:21;24.50;71.70
44775;DHT22;31340;51.402;0.016;2023-07-09T15:07:50;24.30;72.20
44775;DHT22;31340;51.402;0.016;2023-07-09T15:10:23;24.30;71.70
44775;DHT22;31340;51.402;0.016;2023-07-09T15:12:51;24.20;71.70
44775;DHT22;31340;51.402;0.016;2023-07-09T15:15:30;24.20;72.00
44775;DHT22;31340;51.402;0.016;2023-07-09T15:18:09;24.20;72.20
44775;DHT22;31340;51.402;0.016;2023-07-09T15:20:38;24.10;72.80
44775;DHT22;31340;51.402;0.016;2023-07-09T15:23:09;24.10;73.00
44775;DHT22;31340;51.402;0.016;2023-07-09T15:25:37;24.10;73.40
44775;DHT22;31340;51.402;0.016;2023-07-09T15:28:05;24.10;73.40
44775;DHT22;31340;51.402;0.016;2023-07-09T15:30:32;24.10;73.90
44775;DHT22;31340;51.402;0.016;2023-07-09T15:33:01;24.20;73.90
44775;DHT22;31340;51.402;0.016;2023-07-09T15:35:36;24.40;74.60
44775;DHT22;31340;51.402;0.016;2023-07-09T15:38:25;24.50;74.00
44775;DHT22;31340;51.402;0.016;2023-07-09T15:40:53;24.80;74.20
44775;DHT22;31340;51.402;0.016;2023-07-09T15:43:21;25.00;73.50
44775;DHT22;31340;51.402;0.016;2023-07-09T15:45:51;25.30;73.10
44775;DHT22;31340;51.402;0.016;2023-07-09T15:48:32;25.50;72.30
44775;DHT22;31340;51.402;0.016;2023-07-09T15:51:02;25.60;71.60
44775;DHT22;31340;51.402;0.016;2023-07-09T15:53:32;25.80;71.50
44775;DHT22;31340;51.402;0.016;2023-07-09T15:56:06;25.90;71.40
44775;DHT22;31340;51.402;0.016;2023-07-09T15:58:40;26.00;70.70
44775;DHT22;31340;51.402;0.016;2023-07-09T16:01:13;26.30;70.30
44775;DHT22;31340;51.402;0.016;2023-07-09T16:03:49;26.60;70.10
44775;DHT22;31340;51.402;0.016;2023-07-09T16:06:18;26.80;69.60
44775;DHT22;31340;51.402;0.016;2023-07-09T16:08:46;27.10;69.00
44775;DHT22;31340;51.402;0.016;2023-07-09T16:11:22;27.40;67.70
44775;DHT22;31340;51.402;0.016;2023-07-09T16:13:51;27.70;66.70
44775;DHT22;31340;51.402;0.016;2023-07-09T16:16:21;28.00;65.80
44775;DHT22;31340;51.402;0.016;2023-07-09T16:18:50;28.20;64.20
44775;DHT22;31340;51.402;0.016;2023-07-09T16:23:52;28.60;62.10
44775;DHT22;31340;51.402;0.016;2023-07-09T16:26:20;28.70;62.10
44775;DHT22;31340;51.402;0.016;2023-07-09T16:28:50;28.80;61.80
44775;DHT22;31340;51.402;0.016;2023-07-09T16:31:18;29.00;61.30
44775;DHT22;31340;51.402;0.016;2023-07-09T16:33:46;29.20;60.50
44775;DHT22;31340;51.402;0.016;2023-07-09T16:36:17;29.30;59.90